createdAt,value
2022-10-12T00:00:01.851Z,54.27
2022-10-12T00:05:14.051Z,54.06
2022-10-12T00:10:15.793Z,54.03
2022-10-12T00:15:17.554Z,54.23
2022-10-12T00:20:19.388Z,54.13
2022-10-12T00:25:22.384Z,54.16
2022-10-12T00:30:24.080Z,53.99
2022-10-12T00:35:28.870Z,54.18
2022-10-12T00:40:30.800Z,54.30
2022-10-12T00:45:32.601Z,54.26
2022-10-12T00:50:36.051Z,54.35
2022-10-12T00:55:45.345Z,54.18
2022-10-12T01:00:47.490Z,54.37
2022-10-12T01:05:49.390Z,54.50
2022-10-12T01:10:50.966Z,54.58
2022-10-12T01:16:18.771Z,54.70
2022-10-12T01:21:22.585Z,54.65
2022-10-12T01:27:05.670Z,54.78
2022-10-12T01:32:16.151Z,54.88
2022-10-12T01:37:38.317Z,54.73
2022-10-12T01:42:43.198Z,54.75
2022-10-12T01:47:52.744Z,54.70
2022-10-12T01:52:57.202Z,54.67
2022-10-12T01:58:23.149Z,54.60
2022-10-12T02:03:38.797Z,54.58
2022-10-12T02:08:56.735Z,54.83
2022-10-12T02:14:07.182Z,54.72
2022-10-12T02:19:14.230Z,54.88
2022-10-12T02:24:18.918Z,55.02
2022-10-12T02:29:27.419Z,54.96
2022-10-12T02:34:33.724Z,55.21
2022-10-12T02:39:54.606Z,55.29
2022-10-12T02:45:00.933Z,55.28
2022-10-12T02:50:03.758Z,55.18
2022-10-12T02:55:06.145Z,55.23
2022-10-12T03:00:08.767Z,55.33
2022-10-12T03:05:10.356Z,55.54
2022-10-12T03:10:13.446Z,55.38
2022-10-12T03:15:15.310Z,55.24
2022-10-12T03:20:16.960Z,55.38
2022-10-12T03:25:18.787Z,55.34
2022-10-12T03:30:20.606Z,55.26
2022-10-12T03:35:22.175Z,55.39
2022-10-12T03:40:23.913Z,55.37
2022-10-12T03:45:25.596Z,55.40
2022-10-12T03:50:27.266Z,55.22
2022-10-12T03:55:29.279Z,55.17
2022-10-12T04:00:31.095Z,55.37
2022-10-12T04:05:32.954Z,55.29
2022-10-12T04:10:34.793Z,55.24
2022-10-12T04:15:36.737Z,55.40
2022-10-12T04:20:38.441Z,55.25
2022-10-12T04:25:40.181Z,55.04
2022-10-12T04:30:41.784Z,55.29
2022-10-12T04:35:43.323Z,55.30
2022-10-12T04:40:49.153Z,55.31
2022-10-12T04:45:58.998Z,55.25
2022-10-12T04:51:00.922Z,55.29
2022-10-12T04:56:04.863Z,55.17
2022-10-12T05:01:07.591Z,55.07
2022-10-12T05:06:09.639Z,54.97
2022-10-12T05:11:11.433Z,55.04
2022-10-12T05:16:13.081Z,54.82
2022-10-12T05:21:14.822Z,55.05
2022-10-12T05:26:16.452Z,55.07
2022-10-12T05:31:18.169Z,54.92
2022-10-12T05:36:19.818Z,54.95
2022-10-12T05:41:21.494Z,55.13
2022-10-12T05:46:23.666Z,55.02
2022-10-12T05:51:28.761Z,54.84
2022-10-12T05:56:31.118Z,55.06
2022-10-12T06:01:33.277Z,55.14
2022-10-12T06:06:35.234Z,55.31
2022-10-12T06:11:38.051Z,55.07
2022-10-12T06:16:41.401Z,55.40
2022-10-12T06:21:43.356Z,55.41
2022-10-12T06:26:45.036Z,55.33
2022-10-12T06:31:51.795Z,55.44
2022-10-12T06:36:56.114Z,55.41
2022-10-12T06:42:00.062Z,55.35
2022-10-12T06:47:03.599Z,55.20
2022-10-12T06:52:06.095Z,55.16
2022-10-12T06:57:07.670Z,55.30
2022-10-12T07:02:12.183Z,55.25
2022-10-12T07:07:13.831Z,55.37
2022-10-12T07:12:15.474Z,55.96
2022-10-12T07:17:17.611Z,55.59
2022-10-12T07:22:19.864Z,55.72
2022-10-12T07:27:21.759Z,55.40
2022-10-12T07:32:24.238Z,55.90
2022-10-12T07:37:25.888Z,55.67
2022-10-12T07:42:29.319Z,55.74
2022-10-12T07:47:31.703Z,55.73
2022-10-12T07:52:33.270Z,55.31
2022-10-12T07:57:34.957Z,55.31
2022-10-12T08:02:37.695Z,55.21
2022-10-12T08:07:39.472Z,55.11
2022-10-12T08:12:41.616Z,55.10
2022-10-12T08:17:43.486Z,54.95
2022-10-12T08:22:45.259Z,55.09
2022-10-12T08:27:47.045Z,55.20
2022-10-12T08:32:48.818Z,55.25
2022-10-12T08:37:50.389Z,55.36
2022-10-12T08:43:14.104Z,55.55
2022-10-12T08:48:26.664Z,55.30
2022-10-12T08:54:02.583Z,55.41
2022-10-12T08:59:04.178Z,55.67
2022-10-12T09:04:26.371Z,55.54
2022-10-12T09:10:02.310Z,55.30
2022-10-12T09:15:10.399Z,54.93
2022-10-12T09:20:27.311Z,55.28
2022-10-12T09:25:30.133Z,55.08
2022-10-12T09:30:38.857Z,55.00
2022-10-12T09:35:42.980Z,54.83
2022-10-12T09:40:45.676Z,54.27
2022-10-12T09:45:48.595Z,54.11
2022-10-12T09:50:59.392Z,54.05
2022-10-12T09:56:06.292Z,53.99
2022-10-12T10:01:16.608Z,53.86
2022-10-12T10:06:25.679Z,53.62
2022-10-12T10:11:32.058Z,53.16
2022-10-12T10:16:33.890Z,53.35
2022-10-12T10:21:38.256Z,53.34
2022-10-12T10:26:58.918Z,53.19
2022-10-12T10:32:12.631Z,52.60
2022-10-12T10:37:24.375Z,52.17
2022-10-12T10:42:32.142Z,52.07
2022-10-12T10:47:42.839Z,51.68
2022-10-12T10:52:55.522Z,51.33
2022-10-12T10:58:02.748Z,51.05
2022-10-12T11:03:13.235Z,50.95
2022-10-12T11:08:26.782Z,50.47
2022-10-12T11:13:40.048Z,50.55
2022-10-12T11:18:49.544Z,50.09
2022-10-12T11:24:16.069Z,50.01
2022-10-12T11:29:19.000Z,49.21
2022-10-12T11:34:24.055Z,49.10
2022-10-12T11:39:40.098Z,49.14
2022-10-12T11:44:44.511Z,48.42
2022-10-12T11:49:58.089Z,48.39
2022-10-12T11:55:32.282Z,48.72
2022-10-12T12:01:07.720Z,49.09
2022-10-12T12:06:34.728Z,48.70
2022-10-12T12:11:36.327Z,48.08
2022-10-12T12:16:43.260Z,48.06
2022-10-12T12:22:18.863Z,48.10
2022-10-12T12:27:46.897Z,47.71
2022-10-12T12:32:57.937Z,47.35
2022-10-12T12:38:24.615Z,46.92
2022-10-12T12:43:29.143Z,46.27
2022-10-12T12:48:51.238Z,45.76
2022-10-12T12:53:59.992Z,45.37
2022-10-12T12:59:39.101Z,44.94
2022-10-12T13:04:44.474Z,44.38
2022-10-12T13:09:56.281Z,44.30
2022-10-12T13:15:00.916Z,43.77
2022-10-12T13:20:18.284Z,43.93
2022-10-12T13:25:35.257Z,43.75
2022-10-12T13:30:45.053Z,42.95
2022-10-12T13:36:02.694Z,43.23
2022-10-12T13:41:08.718Z,44.04
2022-10-12T13:46:34.123Z,43.98
2022-10-12T13:51:35.951Z,43.25
2022-10-12T13:56:39.828Z,43.36
2022-10-12T14:02:25.310Z,43.48
2022-10-12T14:07:34.941Z,43.53
2022-10-12T14:12:37.575Z,43.33
2022-10-12T14:17:44.743Z,43.16
2022-10-12T14:22:48.810Z,42.96
2022-10-12T14:28:02.761Z,43.17
2022-10-12T14:33:16.658Z,42.83
2022-10-12T14:38:44.949Z,43.08
2022-10-12T14:44:09.692Z,42.88
2022-10-12T14:49:18.693Z,42.57
2022-10-12T14:54:21.472Z,42.93
2022-10-12T14:59:23.274Z,42.83
2022-10-12T15:04:25.170Z,43.30
2022-10-12T15:09:26.804Z,43.32
2022-10-12T15:14:28.586Z,42.81
2022-10-12T15:19:31.673Z,42.14
2022-10-12T15:24:33.322Z,42.40
2022-10-12T15:29:35.223Z,42.08
2022-10-12T15:34:36.847Z,42.07
2022-10-12T15:39:38.674Z,42.05
2022-10-12T15:44:41.324Z,41.81
2022-10-12T15:49:42.911Z,41.72
2022-10-12T15:54:48.117Z,41.57
2022-10-12T15:59:52.468Z,41.93
2022-10-12T16:04:54.209Z,41.47
2022-10-12T16:09:55.843Z,41.46
2022-10-12T16:14:58.902Z,41.81
2022-10-12T16:20:00.711Z,41.61
2022-10-12T16:25:05.246Z,41.97
2022-10-12T16:30:09.171Z,42.13
2022-10-12T16:35:12.758Z,42.31
2022-10-12T16:40:15.871Z,42.66
2022-10-12T16:45:17.465Z,42.74
2022-10-12T16:50:21.094Z,42.93
2022-10-12T16:55:22.780Z,43.37
2022-10-12T17:00:24.400Z,43.55
2022-10-12T17:05:26.003Z,43.86
2022-10-12T17:10:27.888Z,44.09
2022-10-12T17:15:29.535Z,44.50
2022-10-12T17:20:31.205Z,44.56
2022-10-12T17:25:33.284Z,44.96
2022-10-12T17:30:35.952Z,45.40
2022-10-12T17:35:40.475Z,45.63
2022-10-12T17:40:42.202Z,45.90
2022-10-12T17:45:43.975Z,46.37
2022-10-12T17:50:45.811Z,46.55
2022-10-12T17:55:48.894Z,47.00
2022-10-12T18:00:50.907Z,47.27
2022-10-12T18:05:55.705Z,47.39
2022-10-12T18:11:01.745Z,47.68
2022-10-12T18:16:11.163Z,48.00
2022-10-12T18:21:14.197Z,48.04
2022-10-12T18:26:21.788Z,48.26
2022-10-12T18:31:25.706Z,48.45
2022-10-12T18:36:28.321Z,48.64
2022-10-12T18:41:30.634Z,48.93
2022-10-12T18:46:34.539Z,49.09
2022-10-12T18:51:39.357Z,49.19
2022-10-12T18:56:41.928Z,49.49
2022-10-12T19:01:44.575Z,49.63
2022-10-12T19:06:46.282Z,49.79
2022-10-12T19:11:47.975Z,50.09
2022-10-12T19:16:51.655Z,50.50
2022-10-12T19:21:54.143Z,50.70
2022-10-12T19:26:56.195Z,50.92
2022-10-12T19:31:57.857Z,51.22
2022-10-12T19:37:04.702Z,51.36
2022-10-12T19:42:09.377Z,51.32
2022-10-12T19:47:11.250Z,51.45
2022-10-12T19:52:13.072Z,51.50
2022-10-12T19:57:14.742Z,51.61
2022-10-12T20:02:16.752Z,51.62
2022-10-12T20:07:18.531Z,51.85
2022-10-12T20:12:20.536Z,51.97
2022-10-12T20:17:22.291Z,51.79
2022-10-12T20:22:25.220Z,51.88
2022-10-12T20:27:28.581Z,51.83
2022-10-12T20:32:30.327Z,52.04
2022-10-12T20:37:33.195Z,52.05
2022-10-12T20:42:34.829Z,51.97
2022-10-12T20:47:36.594Z,52.04
2022-10-12T20:52:38.820Z,51.93
2022-10-12T20:57:40.579Z,51.83
2022-10-12T21:02:42.311Z,52.09
2022-10-12T21:07:44.393Z,52.10
2022-10-12T21:12:45.944Z,52.19
2022-10-12T21:17:47.492Z,52.18
2022-10-12T21:22:49.088Z,52.29
2022-10-12T21:27:50.694Z,52.28
2022-10-12T21:32:52.332Z,52.25
2022-10-12T21:37:53.946Z,52.56
2022-10-12T21:42:55.508Z,52.44
2022-10-12T21:47:58.637Z,52.69
2022-10-12T21:53:20.518Z,52.74
2022-10-12T21:58:22.613Z,52.56
2022-10-12T22:03:24.478Z,52.69
2022-10-12T22:08:26.335Z,52.44
2022-10-12T22:13:29.683Z,52.39
2022-10-12T22:18:31.407Z,52.35
2022-10-12T22:23:34.514Z,52.20
2022-10-12T22:28:38.577Z,52.34
2022-10-12T22:33:40.971Z,52.48
2022-10-12T22:38:43.198Z,52.29
2022-10-12T22:43:45.874Z,52.02
2022-10-12T22:48:49.998Z,51.88
2022-10-12T22:53:51.875Z,51.85
2022-10-12T22:58:58.926Z,51.76
2022-10-12T23:04:01.764Z,51.99
2022-10-12T23:09:04.671Z,51.93
2022-10-12T23:14:06.537Z,51.78
2022-10-12T23:19:09.904Z,51.78
2022-10-12T23:24:11.488Z,51.85
2022-10-12T23:29:13.132Z,51.88
2022-10-12T23:34:16.685Z,51.68
2022-10-12T23:39:19.367Z,52.04
2022-10-12T23:44:21.139Z,51.90
2022-10-12T23:49:23.071Z,51.94
2022-10-12T23:54:28.816Z,52.31
2022-10-12T23:59:30.875Z,52.35
